sensor_id;sensor_type;location;lat;lon;timestamp;pressure;altitude;pressure_sealevel;temperature;humidity
48077;BME280;33854;57.708;12.008;2023-02-23T00:01:54;97316.75;;;2.34;100.00
48077;BME280;33854;57.708;12.008;2023-02-23T00:04:20;97274.97;;;2.17;100.00
48077;BME280;33854;57.708;12.008;2023-02-23T00:06:45;97280.84;;;2.32;100.00
48077;BME280;33854;57.708;12.008;2023-02-23T00:09:11;97269.81;;;2.30;100.00
48077;BME280;33854;57.708;12.008;2023-02-23T00:11:40;97257.06;;;2.28;100.00
48077;BME280;33854;57.708;12.008;2023-02-23T00:14:05;97259.53;;;2.30;100.00
48077;BME280;33854;57.708;12.008;2023-02-23T00:16:32;97275.69;;;2.32;100.00
48077;BME280;33854;57.708;12.008;2023-02-23T00:18:58;97276.75;;;2.29;100.00
48077;BME280;33854;57.708;12.008;2023-02-23T00:21:31;97278.28;;;2.32;100.00
48077;BME280;33854;57.708;12.008;2023-02-23T00:24:06;97260.06;;;2.35;100.00
48077;BME280;33854;57.708;12.008;2023-02-23T00:26:36;97252.34;;;2.35;100.00
48077;BME280;33854;57.708;12.008;2023-02-23T00:29:05;97253.25;;;2.34;100.00
48077;BME280;33854;57.708;12.008;2023-02-23T00:31:31;97255.63;;;2.37;100.00
48077;BME280;33854;57.708;12.008;2023-02-23T00:33:59;97250.47;;;2.37;100.00
48077;BME280;33854;57.708;12.008;2023-02-23T00:36:27;97218.56;;;2.27;100.00
48077;BME280;33854;57.708;12.008;2023-02-23T00:38:54;97216.31;;;2.35;100.00
48077;BME280;33854;57.708;12.008;2023-02-23T00:41:20;97199.84;;;2.38;100.00
48077;BME280;33854;57.708;12.008;2023-02-23T00:43:48;97165.44;;;2.39;100.00
48077;BME280;33854;57.708;12.008;2023-02-23T00:46:18;97142.50;;;2.36;100.00
48077;BME280;33854;57.708;12.008;2023-02-23T00:48:47;97083.53;;;2.33;100.00
48077;BME280;33854;57.708;12.008;2023-02-23T00:51:13;97026.13;;;2.32;100.00
48077;BME280;33854;57.708;12.008;2023-02-23T00:53:40;96966.44;;;2.27;100.00
48077;BME280;33854;57.708;12.008;2023-02-23T00:56:07;96892.56;;;2.29;100.00
48077;BME280;33854;57.708;12.008;2023-02-23T00:58:33;96802.97;;;2.23;100.00
48077;BME280;33854;57.708;12.008;2023-02-23T01:00:59;96696.91;;;2.19;100.00
48077;BME280;33854;57.708;12.008;2023-02-23T01:03:25;96575.69;;;2.13;100.00
48077;BME280;33854;57.708;12.008;2023-02-23T01:05:51;96460.34;;;2.08;100.00
48077;BME280;33854;57.708;12.008;2023-02-23T01:08:17;96307.22;;;2.04;100.00
48077;BME280;33854;57.708;12.008;2023-02-23T01:10:44;96219.94;;;2.03;100.00
48077;BME280;33854;57.708;12.008;2023-02-23T01:13:21;96093.41;;;1.99;100.00
48077;BME280;33854;57.708;12.008;2023-02-23T01:15:47;95988.94;;;1.98;100.00
48077;BME280;33854;57.708;12.008;2023-02-23T01:18:15;95903.69;;;1.93;100.00
48077;BME280;33854;57.708;12.008;2023-02-23T01:20:42;95809.81;;;1.89;100.00
48077;BME280;33854;57.708;12.008;2023-02-23T01:23:07;95751.66;;;1.88;100.00
48077;BME280;33854;57.708;12.008;2023-02-23T01:25:34;95679.03;;;1.86;100.00
48077;BME280;33854;57.708;12.008;2023-02-23T01:28:00;95623.72;;;1.72;100.00
48077;BME280;33854;57.708;12.008;2023-02-23T01:30:25;95568.53;;;1.77;100.00
48077;BME280;33854;57.708;12.008;2023-02-23T01:32:51;95502.53;;;1.77;100.00
48077;BME280;33854;57.708;12.008;2023-02-23T01:35:16;95368.47;;;1.64;100.00
48077;BME280;33854;57.708;12.008;2023-02-23T01:37:42;95291.63;;;1.70;100.00
48077;BME280;33854;57.708;12.008;2023-02-23T01:40:18;95204.56;;;1.67;100.00
48077;BME280;33854;57.708;12.008;2023-02-23T01:42:55;95118.31;;;1.65;100.00
48077;BME280;33854;57.708;12.008;2023-02-23T01:45:29;95047.66;;;1.61;100.00
48077;BME280;33854;57.708;12.008;2023-02-23T01:47:58;94993.56;;;1.62;100.00
48077;BME280;33854;57.708;12.008;2023-02-23T01:50:30;94931.28;;;1.60;100.00
48077;BME280;33854;57.708;12.008;2023-02-23T01:52:57;94861.13;;;1.60;100.00
48077;BME280;33854;57.708;12.008;2023-02-23T01:55:24;94799.47;;;1.60;100.00
48077;BME280;33854;57.708;12.008;2023-02-23T01:58:00;94734.63;;;1.50;100.00
48077;BME280;33854;57.708;12.008;2023-02-23T02:00:27;94670.09;;;1.53;100.00
48077;BME280;33854;57.708;12.008;2023-02-23T02:02:55;94619.72;;;1.52;100.00
48077;BME280;33854;57.708;12.008;2023-02-23T02:05:23;94606.38;;;1.56;100.00
48077;BME280;33854;57.708;12.008;2023-02-23T02:07:50;94529.16;;;1.58;100.00
48077;BME280;33854;57.708;12.008;2023-02-23T02:10:25;94466.88;;;1.56;100.00
48077;BME280;33854;57.708;12.008;2023-02-23T02:13:12;94415.72;;;1.54;100.00
48077;BME280;33854;57.708;12.008;2023-02-23T02:16:11;94367.25;;;1.51;100.00
48077;BME280;33854;57.708;12.008;2023-02-23T02:18:54;94321.84;;;1.52;100.00
48077;BME280;33854;57.708;12.008;2023-02-23T02:38:14;94129.34;;;1.58;100.00
48077;BME280;33854;57.708;12.008;2023-02-23T02:41:07;94132.25;;;1.55;100.00
48077;BME280;33854;57.708;12.008;2023-02-23T02:43:47;94150.88;;;1.57;100.00
48077;BME280;33854;57.708;12.008;2023-02-23T02:46:26;94147.66;;;1.55;100.00
48077;BME280;33854;57.708;12.008;2023-02-23T02:49:05;94135.63;;;1.56;100.00
48077;BME280;33854;57.708;12.008;2023-02-23T02:51:36;94159.53;;;1.56;100.00
48077;BME280;33854;57.708;12.008;2023-02-23T02:56:43;94169.34;;;1.53;100.00
48077;BME280;33854;57.708;12.008;2023-02-23T02:59:16;94205.66;;;1.50;100.00
48077;BME280;33854;57.708;12.008;2023-02-23T03:02:03;94250.72;;;1.52;100.00
48077;BME280;33854;57.708;12.008;2023-02-23T03:04:47;94242.25;;;1.52;100.00
48077;BME280;33854;57.708;12.008;2023-02-23T03:07:52;94231.97;;;1.52;100.00
48077;BME280;33854;57.708;12.008;2023-02-23T03:11:09;94163.75;;;1.49;100.00
48077;BME280;33854;57.708;12.008;2023-02-23T03:14:04;94189.75;;;1.54;100.00
48077;BME280;33854;57.708;12.008;2023-02-23T03:26:13;94161.50;;;1.54;100.00
48077;BME280;33854;57.708;12.008;2023-02-23T03:32:20;94119.25;;;1.57;100.00
48077;BME280;33854;57.708;12.008;2023-02-23T03:35:13;94207.38;;;1.57;100.00
48077;BME280;33854;57.708;12.008;2023-02-23T03:38:18;94208.84;;;1.52;100.00
48077;BME280;33854;57.708;12.008;2023-02-23T03:41:05;94226.66;;;1.53;100.00
48077;BME280;33854;57.708;12.008;2023-02-23T03:43:57;94249.41;;;1.56;100.00
48077;BME280;33854;57.708;12.008;2023-02-23T03:46:45;94244.69;;;1.45;100.00
48077;BME280;33854;57.708;12.008;2023-02-23T03:49:33;94159.00;;;1.61;100.00
48077;BME280;33854;57.708;12.008;2023-02-23T03:52:23;94181.94;;;1.62;100.00
48077;BME280;33854;57.708;12.008;2023-02-23T03:55:15;94215.69;;;1.59;100.00
48077;BME280;33854;57.708;12.008;2023-02-23T03:58:01;94238.44;;;1.62;100.00
48077;BME280;33854;57.708;12.008;2023-02-23T04:00:50;94253.69;;;1.64;100.00
48077;BME280;33854;57.708;12.008;2023-02-23T04:03:39;94242.97;;;1.60;100.00
48077;BME280;33854;57.708;12.008;2023-02-23T04:06:27;94268.66;;;1.60;100.00
48077;BME280;33854;57.708;12.008;2023-02-23T04:09:13;94269.09;;;1.64;100.00
48077;BME280;33854;57.708;12.008;2023-02-23T04:12:04;94290.91;;;1.68;100.00
48077;BME280;33854;57.708;12.008;2023-02-23T04:14:55;94290.91;;;1.68;100.00
48077;BME280;33854;57.708;12.008;2023-02-23T04:17:28;94298.66;;;1.60;100.00
48077;BME280;33854;57.708;12.008;2023-02-23T04:19:55;94310.63;;;1.67;100.00
48077;BME280;33854;57.708;12.008;2023-02-23T04:22:21;94339.50;;;1.69;100.00
48077;BME280;33854;57.708;12.008;2023-02-23T04:24:48;94319.38;;;1.58;100.00
48077;BME280;33854;57.708;12.008;2023-02-23T04:27:13;94335.53;;;1.67;100.00
48077;BME280;33854;57.708;12.008;2023-02-23T04:29:39;94333.59;;;1.69;100.00
48077;BME280;33854;57.708;12.008;2023-02-23T04:32:05;94324.56;;;1.73;100.00
48077;BME280;33854;57.708;12.008;2023-02-23T04:34:31;94315.28;;;1.72;100.00
48077;BME280;33854;57.708;12.008;2023-02-23T04:36:57;94329.09;;;1.71;100.00
48077;BME280;33854;57.708;12.008;2023-02-23T04:39:22;94323.59;;;1.74;100.00
48077;BME280;33854;57.708;12.008;2023-02-23T04:41:48;94360.19;;;1.76;100.00
48077;BME280;33854;57.708;12.008;2023-02-23T04:44:17;94380.41;;;1.79;100.00
48077;BME280;33854;57.708;12.008;2023-02-23T04:46:43;94395.19;;;1.77;100.00
48077;BME280;33854;57.708;12.008;2023-02-23T04:49:08;94362.28;;;1.72;100.00
48077;BME280;33854;57.708;12.008;2023-02-23T04:51:34;94381.00;;;1.81;100.00
48077;BME280;33854;57.708;12.008;2023-02-23T04:54:00;94410.53;;;1.85;100.00
48077;BME280;33854;57.708;12.008;2023-02-23T04:56:26;94435.44;;;1.85;100.00
48077;BME280;33854;57.708;12.008;2023-02-23T04:58:53;94484.88;;;1.87;100.00
48077;BME280;33854;57.708;12.008;2023-02-23T05:01:18;94483.75;;;1.89;100.00
48077;BME280;33854;57.708;12.008;2023-02-23T05:03:46;94512.81;;;1.90;100.00
48077;BME280;33854;57.708;12.008;2023-02-23T05:06:11;94486.16;;;1.91;100.00
48077;BME280;33854;57.708;12.008;2023-02-23T05:08:38;94443.91;;;1.93;100.00
48077;BME280;33854;57.708;12.008;2023-02-23T05:11:05;94442.31;;;1.92;100.00
48077;BME280;33854;57.708;12.008;2023-02-23T05:13:30;94368.56;;;1.93;100.00
48077;BME280;33854;57.708;12.008;2023-02-23T05:15:56;94387.34;;;1.93;100.00
48077;BME280;33854;57.708;12.008;2023-02-23T05:18:22;94434.41;;;1.94;100.00
48077;BME280;33854;57.708;12.008;2023-02-23T05:20:49;94470.41;;;1.94;100.00
48077;BME280;33854;57.708;12.008;2023-02-23T05:23:15;94520.97;;;1.93;100.00
48077;BME280;33854;57.708;12.008;2023-02-23T05:25:40;94545.88;;;1.93;100.00
48077;BME280;33854;57.708;12.008;2023-02-23T05:28:06;94529.50;;;1.94;100.00
48077;BME280;33854;57.708;12.008;2023-02-23T05:30:32;94549.53;;;1.98;100.00
48077;BME280;33854;57.708;12.008;2023-02-23T05:32:57;94555.66;;;1.97;100.00
48077;BME280;33854;57.708;12.008;2023-02-23T05:35:23;94532.53;;;1.97;100.00
48077;BME280;33854;57.708;12.008;2023-02-23T05:37:48;94503.28;;;1.98;100.00
48077;BME280;33854;57.708;12.008;2023-02-23T05:40:14;94455.31;;;1.91;100.00
48077;BME280;33854;57.708;12.008;2023-02-23T05:42:39;94423.63;;;1.98;100.00
48077;BME280;33854;57.708;12.008;2023-02-23T05:45:05;94383.16;;;2.00;100.00
48077;BME280;33854;57.708;12.008;2023-02-23T05:47:31;94383.16;;;2.00;100.00
48077;BME280;33854;57.708;12.008;2023-02-23T05:49:59;94395.47;;;2.05;100.00
48077;BME280;33854;57.708;12.008;2023-02-23T05:52:25;94394.50;;;2.06;100.00
48077;BME280;33854;57.708;12.008;2023-02-23T05:54:51;94278.06;;;2.05;100.00
48077;BME280;33854;57.708;12.008;2023-02-23T05:57:16;94266.28;;;2.11;100.00
48077;BME280;33854;57.708;12.008;2023-02-23T05:59:42;94281.69;;;2.11;100.00
48077;BME280;33854;57.708;12.008;2023-02-23T06:02:07;94278.31;;;2.10;100.00
48077;BME280;33854;57.708;12.008;2023-02-23T06:04:33;94264.31;;;2.13;100.00
48077;BME280;33854;57.708;12.008;2023-02-23T06:06:58;94266.47;;;2.09;100.00
48077;BME280;33854;57.708;12.008;2023-02-23T06:09:24;94271.06;;;2.14;100.00
48077;BME280;33854;57.708;12.008;2023-02-23T06:11:49;94243.94;;;2.11;100.00
48077;BME280;33854;57.708;12.008;2023-02-23T06:14:15;94271.31;;;2.19;100.00
48077;BME280;33854;57.708;12.008;2023-02-23T06:16:41;94248.38;;;2.17;100.00
48077;BME280;33854;57.708;12.008;2023-02-23T06:19:10;94270.53;;;2.18;100.00
48077;BME280;33854;57.708;12.008;2023-02-23T06:21:35;94296.22;;;2.18;100.00
48077;BME280;33854;57.708;12.008;2023-02-23T06:24:01;94304.41;;;2.22;100.00
48077;BME280;33854;57.708;12.008;2023-02-23T06:26:27;94300.41;;;2.19;100.00
48077;BME280;33854;57.708;12.008;2023-02-23T06:28:53;94291.53;;;2.22;100.00
48077;BME280;33854;57.708;12.008;2023-02-23T06:31:18;94451.38;;;2.25;100.00
48077;BME280;33854;57.708;12.008;2023-02-23T06:33:43;94400.59;;;2.27;100.00
48077;BME280;33854;57.708;12.008;2023-02-23T06:36:09;94425.34;;;2.28;100.00
48077;BME280;33854;57.708;12.008;2023-02-23T06:38:35;94489.28;;;2.32;100.00
48077;BME280;33854;57.708;12.008;2023-02-23T06:41:06;94509.84;;;2.32;100.00
48077;BME280;33854;57.708;12.008;2023-02-23T06:43:32;94517.56;;;2.32;100.00
48077;BME280;33854;57.708;12.008;2023-02-23T06:45:57;94513.03;;;2.34;100.00
48077;BME280;33854;57.708;12.008;2023-02-23T06:48:23;94515.44;;;2.35;100.00
48077;BME280;33854;57.708;12.008;2023-02-23T06:50:48;94542.94;;;2.35;100.00
48077;BME280;33854;57.708;12.008;2023-02-23T06:53:13;94572.81;;;2.36;100.00
48077;BME280;33854;57.708;12.008;2023-02-23T06:55:39;94593.03;;;2.39;100.00
48077;BME280;33854;57.708;12.008;2023-02-23T06:58:04;94612.03;;;2.38;100.00
48077;BME280;33854;57.708;12.008;2023-02-23T07:00:31;94648.47;;;2.41;100.00
48077;BME280;33854;57.708;12.008;2023-02-23T07:02:56;94655.41;;;2.41;100.00
48077;BME280;33854;57.708;12.008;2023-02-23T07:05:24;94675.00;;;2.42;100.00
48077;BME280;33854;57.708;12.008;2023-02-23T07:07:49;94681.75;;;2.43;100.00
48077;BME280;33854;57.708;12.008;2023-02-23T07:10:16;94702.94;;;2.45;100.00
48077;BME280;33854;57.708;12.008;2023-02-23T07:12:42;94689.63;;;2.41;100.00
48077;BME280;33854;57.708;12.008;2023-02-23T07:15:08;94686.38;;;2.55;100.00
48077;BME280;33854;57.708;12.008;2023-02-23T07:17:34;94706.63;;;2.58;100.00
48077;BME280;33854;57.708;12.008;2023-02-23T07:20:00;94775.41;;;2.56;100.00
48077;BME280;33854;57.708;12.008;2023-02-23T07:22:25;94771.22;;;2.63;100.00
48077;BME280;33854;57.708;12.008;2023-02-23T07:24:55;94793.56;;;2.63;100.00
48077;BME280;33854;57.708;12.008;2023-02-23T07:27:20;94825.38;;;2.70;100.00
48077;BME280;33854;57.708;12.008;2023-02-23T07:29:46;94818.97;;;2.66;100.00
48077;BME280;33854;57.708;12.008;2023-02-23T07:32:11;94827.50;;;2.66;100.00
48077;BME280;33854;57.708;12.008;2023-02-23T07:34:37;94867.53;;;2.69;100.00
48077;BME280;33854;57.708;12.008;2023-02-23T07:37:03;94855.28;;;2.71;100.00
48077;BME280;33854;57.708;12.008;2023-02-23T07:39:28;94804.78;;;2.78;100.00
48077;BME280;33854;57.708;12.008;2023-02-23T07:41:55;94763.63;;;2.78;100.00
48077;BME280;33854;57.708;12.008;2023-02-23T07:44:20;94766.81;;;2.80;100.00
48077;BME280;33854;57.708;12.008;2023-02-23T07:46:46;94755.56;;;2.73;100.00
48077;BME280;33854;57.708;12.008;2023-02-23T07:49:11;94797.84;;;2.86;100.00
48077;BME280;33854;57.708;12.008;2023-02-23T07:51:38;94797.66;;;2.88;100.00
48077;BME280;33854;57.708;12.008;2023-02-23T07:54:05;94813.09;;;2.88;100.00
48077;BME280;33854;57.708;12.008;2023-02-23T07:56:31;94790.88;;;2.87;100.00
48077;BME280;33854;57.708;12.008;2023-02-23T07:58:57;94750.03;;;2.92;100.00
48077;BME280;33854;57.708;12.008;2023-02-23T08:01:22;94754.19;;;2.93;100.00
48077;BME280;33854;57.708;12.008;2023-02-23T08:03:48;94763.53;;;2.94;100.00
48077;BME280;33854;57.708;12.008;2023-02-23T08:06:17;94652.84;;;2.94;100.00
48077;BME280;33854;57.708;12.008;2023-02-23T08:08:43;94452.53;;;2.98;100.00
48077;BME280;33854;57.708;12.008;2023-02-23T08:11:08;94446.59;;;2.97;100.00
48077;BME280;33854;57.708;12.008;2023-02-23T08:13:35;94414.63;;;2.92;100.00
48077;BME280;33854;57.708;12.008;2023-02-23T08:16:01;94437.19;;;3.04;100.00
48077;BME280;33854;57.708;12.008;2023-02-23T08:18:26;94435.41;;;3.05;100.00
48077;BME280;33854;57.708;12.008;2023-02-23T08:21:02;94462.03;;;3.12;100.00
48077;BME280;33854;57.708;12.008;2023-02-23T08:23:29;94458.66;;;3.11;100.00
48077;BME280;33854;57.708;12.008;2023-02-23T08:25:55;94459.63;;;3.10;100.00
48077;BME280;33854;57.708;12.008;2023-02-23T08:28:20;94448.63;;;3.16;100.00
48077;BME280;33854;57.708;12.008;2023-02-23T08:30:47;94402.75;;;3.05;100.00
48077;BME280;33854;57.708;12.008;2023-02-23T08:33:12;94497.53;;;3.16;100.00
48077;BME280;33854;57.708;12.008;2023-02-23T08:35:37;94490.47;;;3.18;100.00
48077;BME280;33854;57.708;12.008;2023-02-23T08:38:03;94491.09;;;3.20;100.00
48077;BME280;33854;57.708;12.008;2023-02-23T08:40:28;94478.81;;;3.22;100.00
48077;BME280;33854;57.708;12.008;2023-02-23T08:42:54;94483.53;;;3.19;100.00
48077;BME280;33854;57.708;12.008;2023-02-23T08:45:19;94528.38;;;3.24;100.00
48077;BME280;33854;57.708;12.008;2023-02-23T08:47:45;94532.81;;;3.30;100.00
48077;BME280;33854;57.708;12.008;2023-02-23T08:50:11;94533.81;;;3.29;100.00
48077;BME280;33854;57.708;12.008;2023-02-23T08:52:37;94529.63;;;3.28;100.00
48077;BME280;33854;57.708;12.008;2023-02-23T08:55:04;94531.03;;;3.31;100.00
48077;BME280;33854;57.708;12.008;2023-02-23T08:57:32;94547.22;;;3.39;100.00
48077;BME280;33854;57.708;12.008;2023-02-23T08:59:58;94538.06;;;3.37;100.00
48077;BME280;33854;57.708;12.008;2023-02-23T09:02:24;94538.97;;;3.44;100.00
48077;BME280;33854;57.708;12.008;2023-02-23T09:04:49;94544.38;;;3.49;100.00
48077;BME280;33854;57.708;12.008;2023-02-23T09:07:19;94535.25;;;3.47;100.00
48077;BME280;33854;57.708;12.008;2023-02-23T09:09:52;94552.38;;;3.54;100.00
48077;BME280;33854;57.708;12.008;2023-02-23T09:12:18;94544.13;;;3.59;100.00
48077;BME280;33854;57.708;12.008;2023-02-23T09:14:43;94533.03;;;3.58;100.00
48077;BME280;33854;57.708;12.008;2023-02-23T09:17:09;94529.28;;;3.61;100.00
48077;BME280;33854;57.708;12.008;2023-02-23T09:19:34;94517.00;;;3.63;100.00
48077;BME280;33854;57.708;12.008;2023-02-23T09:21:59;94511.06;;;3.62;100.00
48077;BME280;33854;57.708;12.008;2023-02-23T09:24:25;94512.75;;;3.70;100.00
48077;BME280;33854;57.708;12.008;2023-02-23T09:26:50;94481.75;;;3.63;100.00
48077;BME280;33854;57.708;12.008;2023-02-23T09:29:17;94508.13;;;3.80;100.00
48077;BME280;33854;57.708;12.008;2023-02-23T09:31:43;94508.91;;;3.80;100.00
48077;BME280;33854;57.708;12.008;2023-02-23T09:34:09;94531.66;;;3.77;100.00
48077;BME280;33854;57.708;12.008;2023-02-23T09:36:37;94532.66;;;3.76;100.00
48077;BME280;33854;57.708;12.008;2023-02-23T09:39:02;94522.72;;;3.73;100.00
48077;BME280;33854;57.708;12.008;2023-02-23T09:46:44;94526.50;;;3.77;100.00
48077;BME280;33854;57.708;12.008;2023-02-23T09:49:17;94506.91;;;3.76;100.00
48077;BME280;33854;57.708;12.008;2023-02-23T09:51:50;94522.97;;;3.78;100.00
48077;BME280;33854;57.708;12.008;2023-02-23T09:54:22;94528.13;;;3.78;100.00
48077;BME280;33854;57.708;12.008;2023-02-23T09:56:49;94539.25;;;3.78;100.00
48077;BME280;33854;57.708;12.008;2023-02-23T09:59:18;94542.78;;;3.77;100.00
48077;BME280;33854;57.708;12.008;2023-02-23T10:07:02;94793.88;;;3.83;100.00
48077;BME280;33854;57.708;12.008;2023-02-23T10:12:29;94816.72;;;3.86;100.00
48077;BME280;33854;57.708;12.008;2023-02-23T10:23:09;94846.44;;;3.96;100.00
48077;BME280;33854;57.708;12.008;2023-02-23T10:25:40;94850.31;;;4.00;100.00
48077;BME280;33854;57.708;12.008;2023-02-23T10:28:14;94863.72;;;3.96;100.00
48077;BME280;33854;57.708;12.008;2023-02-23T10:30:40;94873.03;;;3.97;100.00
48077;BME280;33854;57.708;12.008;2023-02-23T10:33:23;94874.66;;;3.98;100.00
48077;BME280;33854;57.708;12.008;2023-02-23T10:35:57;94886.22;;;4.02;100.00
48077;BME280;33854;57.708;12.008;2023-02-23T10:38:25;94907.84;;;4.01;100.00
48077;BME280;33854;57.708;12.008;2023-02-23T10:40:53;94919.41;;;4.05;100.00
48077;BME280;33854;57.708;12.008;2023-02-23T10:43:20;94934.13;;;3.96;100.00
48077;BME280;33854;57.708;12.008;2023-02-23T10:45:48;94927.19;;;3.97;100.00
48077;BME280;33854;57.708;12.008;2023-02-23T10:48:20;94928.81;;;3.98;100.00
48077;BME280;33854;57.708;12.008;2023-02-23T10:50:49;94943.13;;;4.00;100.00
48077;BME280;33854;57.708;12.008;2023-02-23T10:53:33;94920.78;;;3.93;100.00
48077;BME280;33854;57.708;12.008;2023-02-23T10:56:18;94982.09;;;4.06;100.00
48077;BME280;33854;57.708;12.008;2023-02-23T10:58:47;94976.78;;;4.07;100.00
48077;BME280;33854;57.708;12.008;2023-02-23T11:01:15;95021.59;;;4.06;100.00
48077;BME280;33854;57.708;12.008;2023-02-23T11:03:47;95021.91;;;4.03;100.00
48077;BME280;33854;57.708;12.008;2023-02-23T11:06:29;95021.75;;;4.05;100.00
48077;BME280;33854;57.708;12.008;2023-02-23T11:08:55;95044.78;;;4.06;100.00
48077;BME280;33854;57.708;12.008;2023-02-23T11:11:26;95066.84;;;4.09;100.00
48077;BME280;33854;57.708;12.008;2023-02-23T11:13:54;95059.31;;;3.99;100.00
48077;BME280;33854;57.708;12.008;2023-02-23T11:16:26;95105.06;;;4.13;100.00
48077;BME280;33854;57.708;12.008;2023-02-23T11:21:27;95136.94;;;4.20;100.00
48077;BME280;33854;57.708;12.008;2023-02-23T11:23:56;95156.94;;;4.18;100.00
48077;BME280;33854;57.708;12.008;2023-02-23T11:26:36;95169.66;;;4.20;100.00
48077;BME280;33854;57.708;12.008;2023-02-23T11:29:29;95146.59;;;4.26;100.00
48077;BME280;33854;57.708;12.008;2023-02-23T11:32:03;95206.88;;;4.25;100.00
48077;BME280;33854;57.708;12.008;2023-02-23T11:34:35;95218.00;;;4.26;100.00
48077;BME280;33854;57.708;12.008;2023-02-23T11:39:55;95272.84;;;4.20;100.00
48077;BME280;33854;57.708;12.008;2023-02-23T11:42:24;95286.41;;;4.22;100.00
48077;BME280;33854;57.708;12.008;2023-02-23T11:44:51;95292.81;;;4.26;100.00
48077;BME280;33854;57.708;12.008;2023-02-23T11:47:26;95303.66;;;4.21;100.00
48077;BME280;33854;57.708;12.008;2023-02-23T11:49:52;95344.25;;;4.19;100.00
48077;BME280;33854;57.708;12.008;2023-02-23T11:52:20;95368.13;;;4.21;100.00
48077;BME280;33854;57.708;12.008;2023-02-23T11:57:31;95381.03;;;4.29;100.00
48077;BME280;33854;57.708;12.008;2023-02-23T12:00:00;95412.63;;;4.31;100.00
48077;BME280;33854;57.708;12.008;2023-02-23T12:02:28;95397.16;;;4.31;100.00
48077;BME280;33854;57.708;12.008;2023-02-23T12:05:16;95425.69;;;4.38;100.00
48077;BME280;33854;57.708;12.008;2023-02-23T12:10:26;95433.13;;;4.33;100.00
48077;BME280;33854;57.708;12.008;2023-02-23T12:13:04;95398.75;;;4.40;100.00
48077;BME280;33854;57.708;12.008;2023-02-23T12:15:49;95380.69;;;4.65;100.00
48077;BME280;33854;57.708;12.008;2023-02-23T12:18:27;95413.44;;;4.64;100.00
48077;BME280;33854;57.708;12.008;2023-02-23T12:20:57;95383.94;;;4.50;100.00
48077;BME280;33854;57.708;12.008;2023-02-23T12:23:28;95399.72;;;4.55;100.00
48077;BME280;33854;57.708;12.008;2023-02-23T12:26:17;95396.97;;;4.57;100.00
48077;BME280;33854;57.708;12.008;2023-02-23T12:32:17;95387.47;;;4.57;100.00
48077;BME280;33854;57.708;12.008;2023-02-23T12:37:33;95408.28;;;4.64;100.00
48077;BME280;33854;57.708;12.008;2023-02-23T12:40:31;95388.59;;;4.63;100.00
48077;BME280;33854;57.708;12.008;2023-02-23T12:43:06;95392.94;;;4.63;100.00
48077;BME280;33854;57.708;12.008;2023-02-23T12:45:49;95398.44;;;4.68;100.00
48077;BME280;33854;57.708;12.008;2023-02-23T12:51:21;95385.66;;;4.66;100.00
48077;BME280;33854;57.708;12.008;2023-02-23T12:53:48;95393.91;;;4.70;100.00
48077;BME280;33854;57.708;12.008;2023-02-23T13:01:27;95385.50;;;4.76;100.00
48077;BME280;33854;57.708;12.008;2023-02-23T13:04:11;95384.69;;;4.75;100.00
48077;BME280;33854;57.708;12.008;2023-02-23T13:17:59;95383.09;;;4.66;100.00
48077;BME280;33854;57.708;12.008;2023-02-23T13:31:18;95375.47;;;4.81;100.00
48077;BME280;33854;57.708;12.008;2023-02-23T13:33:45;95370.94;;;4.83;100.00
48077;BME280;33854;57.708;12.008;2023-02-23T13:36:11;95343.03;;;4.86;100.00
48077;BME280;33854;57.708;12.008;2023-02-23T13:38:51;95349.59;;;4.97;100.00
48077;BME280;33854;57.708;12.008;2023-02-23T13:41:36;95333.44;;;5.03;100.00
48077;BME280;33854;57.708;12.008;2023-02-23T13:44:16;95296.63;;;5.09;100.00
48077;BME280;33854;57.708;12.008;2023-02-23T13:49:32;95327.13;;;5.05;100.00
48077;BME280;33854;57.708;12.008;2023-02-23T13:52:09;95307.13;;;5.07;100.00
48077;BME280;33854;57.708;12.008;2023-02-23T13:54:52;95317.91;;;5.19;100.00
48077;BME280;33854;57.708;12.008;2023-02-23T13:57:20;95317.56;;;5.22;100.00
48077;BME280;33854;57.708;12.008;2023-02-23T13:59:46;95299.34;;;5.15;100.00
48077;BME280;33854;57.708;12.008;2023-02-23T14:02:33;95298.78;;;5.28;100.00
48077;BME280;33854;57.708;12.008;2023-02-23T14:07:32;95320.09;;;5.30;100.00
48077;BME280;33854;57.708;12.008;2023-02-23T14:10:07;95278.41;;;5.33;100.00
48077;BME280;33854;57.708;12.008;2023-02-23T14:13:07;95268.41;;;5.30;100.00
48077;BME280;33854;57.708;12.008;2023-02-23T14:15:48;95270.00;;;5.31;100.00
48077;BME280;33854;57.708;12.008;2023-02-23T14:21:12;95254.22;;;5.26;100.00
48077;BME280;33854;57.708;12.008;2023-02-23T14:24:21;95219.31;;;5.30;100.00
48077;BME280;33854;57.708;12.008;2023-02-23T14:29:29;95178.59;;;5.32;100.00
48077;BME280;33854;57.708;12.008;2023-02-23T14:37:33;95203.47;;;5.33;100.00
48077;BME280;33854;57.708;12.008;2023-02-23T14:40:10;95203.97;;;5.29;100.00
48077;BME280;33854;57.708;12.008;2023-02-23T14:42:37;95205.13;;;5.26;100.00
48077;BME280;33854;57.708;12.008;2023-02-23T14:47:46;95220.88;;;5.16;100.00
48077;BME280;33854;57.708;12.008;2023-02-23T14:50:21;95200.22;;;5.08;100.00
48077;BME280;33854;57.708;12.008;2023-02-23T14:52:48;95211.66;;;5.14;100.00
48077;BME280;33854;57.708;12.008;2023-02-23T14:55:21;95243.47;;;5.14;100.00
48077;BME280;33854;57.708;12.008;2023-02-23T14:57:47;95237.50;;;5.14;100.00
48077;BME280;33854;57.708;12.008;2023-02-23T15:02:55;95235.56;;;5.16;100.00
48077;BME280;33854;57.708;12.008;2023-02-23T15:05:23;95224.75;;;5.12;100.00
48077;BME280;33854;57.708;12.008;2023-02-23T15:07:49;95227.81;;;5.16;100.00
48077;BME280;33854;57.708;12.008;2023-02-23T15:12:41;95231.53;;;5.13;100.00
48077;BME280;33854;57.708;12.008;2023-02-23T15:15:18;95231.69;;;5.12;100.00